Suamico, Wisconsin
Current Conditions -  °F | °C
As of 7:53 AM on Monday 20 Oct 2014 (Local Time) from KGRB Reporting Station
Overcast Overcast  
Wind Chill: 44°   Ceiling: 6000
Heat Index: 48°   Visibility: 10mi
Dew Point: 44°   Wind: 8mph
Humidity: 86%   Direction: 330°NNW
Pressure: 29.82"   Gusts: NA
Location:  44.63°N, 88.04°W
Report Text: KGRB 201253Z 33007KT 10SM OVC060 09/07 A2982 RMK AO2 SLP100 T00890067
Loading
Personal Weather Stations






























Interactive Weather Map
Tropical Storm Tracking
New forecast layout! Learn more

10-Day Weather Forecast

Advertisements
Track Severe Weather on mobile